Time;durP1;ratioP1;P1;durP2;ratioP2;P2;SDS_P1;SDS_P2;PMS_P1;PMS_P2;Temp;Humidity;BMP_temperature;BMP_pressure;BME280_temperature;BME280_humidity;BME280_pressure;Samples;Min_cycle;Max_cycle;Signal;HPM_P1;HPM_P2
2023/10/27 00:00:10;;;;;;;8.77;2.50;;;;;;;10.70;100.00;95997.63;5097688;28;20193;-83
2023/10/27 00:02:38;;;;;;;6.43;2.63;;;;;;;10.68;100.00;96007.50;5097776;28;20263;-81
2023/10/27 00:05:05;;;;;;;4.17;2.33;;;;;;;10.66;100.00;95998.91;5098533;28;20199;-81
2023/10/27 00:07:31;;;;;;;7.53;2.67;;;;;;;10.65;100.00;96000.72;5098404;28;20205;-81
2023/10/27 00:09:58;;;;;;;4.37;2.20;;;;;;;10.65;100.00;95994.63;5096544;28;20201;-84
2023/10/27 00:12:25;;;;;;;6.37;2.40;;;;;;;10.61;100.00;95998.56;5087194;28;20224;-83
2023/10/27 00:14:53;;;;;;;4.13;2.43;;;;;;;10.54;100.00;95989.59;5087429;28;20229;-84
2023/10/27 00:17:19;;;;;;;6.07;2.57;;;;;;;10.50;100.00;95996.19;5086810;28;20218;-84
2023/10/27 00:19:46;;;;;;;3.50;2.47;;;;;;;10.51;100.00;95997.84;5085698;28;20211;-84
2023/10/27 00:22:13;;;;;;;4.80;1.93;;;;;;;10.49;100.00;95999.81;5086353;28;20237;-83
2023/10/27 00:24:39;;;;;;;3.47;2.00;;;;;;;10.47;100.00;95980.66;5085506;28;20222;-84
2023/10/27 00:27:06;;;;;;;3.87;1.83;;;;;;;10.45;100.00;95983.44;5086428;28;20228;-83
2023/10/27 00:29:32;;;;;;;5.33;2.30;;;;;;;10.45;100.00;95987.91;5085978;28;20233;-84
2023/10/27 00:32:00;;;;;;;4.33;1.77;;;;;;;10.47;100.00;95991.22;5084814;28;20226;-81
2023/10/27 00:34:27;;;;;;;2.70;2.00;;;;;;;10.45;100.00;95990.56;5079830;28;20218;-84
2023/10/27 00:36:53;;;;;;;3.30;2.00;;;;;;;10.48;100.00;95992.88;5079839;28;20215;-83
2023/10/27 00:39:20;;;;;;;5.67;1.90;;;;;;;10.48;100.00;95988.44;5079499;28;20277;-82
2023/10/27 00:41:46;;;;;;;5.73;2.00;;;;;;;10.45;100.00;95993.19;5078699;28;20235;-82
2023/10/27 00:44:13;;;;;;;6.00;2.07;;;;;;;10.40;100.00;95990.19;5078593;28;20211;-83
2023/10/27 00:46:39;;;;;;;4.97;2.00;;;;;;;10.40;100.00;95984.91;5079533;28;20242;-84
2023/10/27 00:49:08;;;;;;;4.50;1.97;;;;;;;10.38;100.00;95994.78;5079645;28;20308;-83
2023/10/27 00:51:34;;;;;;;3.83;1.73;;;;;;;10.38;100.00;95997.44;5079025;28;20237;-83
2023/10/27 00:54:01;;;;;;;6.20;2.07;;;;;;;10.37;100.00;95985.22;5062020;28;20882;-83
2023/10/27 00:56:29;;;;;;;4.90;1.90;;;;;;;10.35;100.00;95980.09;5084627;28;20788;-81
2023/10/27 00:58:57;;;;;;;5.50;2.30;;;;;;;10.33;100.00;95978.63;5082781;28;20261;-84
2023/10/27 01:01:24;;;;;;;7.57;2.30;;;;;;;10.28;100.00;95986.16;5085166;28;20227;-84
2023/10/27 01:03:51;;;;;;;3.37;1.63;;;;;;;10.24;100.00;95979.53;5088113;28;20198;-82
2023/10/27 01:06:19;;;;;;;2.60;1.63;;;;;;;10.24;100.00;95977.72;5082701;28;20208;-83
2023/10/27 01:08:47;;;;;;;2.27;1.60;;;;;;;10.20;100.00;95973.75;5082210;28;20239;-83
2023/10/27 01:11:14;;;;;;;4.23;1.90;;;;;;;10.16;100.00;95969.75;5083669;28;20232;-82
2023/10/27 01:13:40;;;;;;;5.23;2.10;;;;;;;10.16;100.00;95976.84;5079025;28;20211;-82
2023/10/27 01:16:07;;;;;;;5.27;1.87;;;;;;;10.16;100.00;95974.22;5096034;28;20307;-84
2023/10/27 01:18:33;;;;;;;5.23;1.97;;;;;;;10.16;100.00;95971.56;5090898;28;20239;-84
2023/10/27 01:21:00;;;;;;;3.20;1.57;;;;;;;10.17;100.00;95973.22;5086517;28;20762;-84
2023/10/27 01:23:28;;;;;;;3.93;2.00;;;;;;;10.12;100.00;95978.13;5084525;28;20225;-81
2023/10/27 01:25:54;;;;;;;5.07;1.83;;;;;;;10.14;100.00;95978.81;5082729;28;20218;-81
2023/10/27 01:28:21;;;;;;;4.17;1.80;;;;;;;10.10;100.00;95969.56;5082695;28;20666;-84
2023/10/27 01:30:49;;;;;;;4.57;1.87;;;;;;;10.13;100.00;95966.59;5082348;28;20565;-84
2023/10/27 01:33:15;;;;;;;3.33;1.90;;;;;;;10.09;100.00;95965.28;5081695;28;20213;-83
2023/10/27 01:35:42;;;;;;;3.23;1.60;;;;;;;10.11;100.00;95963.28;5081528;28;20212;-84
2023/10/27 01:38:08;;;;;;;4.77;1.97;;;;;;;10.11;100.00;95958.84;5084396;28;20652;-84
2023/10/27 01:40:36;;;;;;;3.13;1.60;;;;;;;10.13;100.00;95958.66;5085125;28;20299;-82
2023/10/27 01:43:03;;;;;;;2.60;1.80;;;;;;;10.08;100.00;95955.66;5081184;28;20222;-82
2023/10/27 01:45:29;;;;;;;3.70;2.00;;;;;;;10.05;100.00;95958.63;5080700;28;20214;-82
2023/10/27 01:47:56;;;;;;;3.80;1.80;;;;;;;10.05;100.00;95958.63;5080745;28;20244;-83
2023/10/27 01:50:22;;;;;;;5.33;2.20;;;;;;;10.05;100.00;95954.19;5081423;28;20210;-83
2023/10/27 01:52:49;;;;;;;4.17;1.90;;;;;;;10.04;100.00;95943.78;5080068;28;20231;-82
2023/10/27 01:55:15;;;;;;;2.47;1.23;;;;;;;10.04;100.00;95943.78;5080674;28;20212;-84
2023/10/27 01:57:43;;;;;;;1.83;1.40;;;;;;;9.98;100.00;95954.94;5080134;28;20205;-83
2023/10/27 02:00:11;;;;;;;4.57;1.43;;;;;;;9.91;100.00;95962.63;5079995;28;20211;-83
2023/10/27 02:02:38;;;;;;;3.57;1.77;;;;;;;9.86;100.00;95958.81;5079291;28;20237;-84
2023/10/27 02:05:05;;;;;;;4.03;1.57;;;;;;;9.82;100.00;95952.16;5081549;28;20207;-83
2023/10/27 02:07:32;;;;;;;4.37;1.47;;;;;;;9.80;100.00;95951.50;5085369;28;20581;-83
2023/10/27 02:09:59;;;;;;;2.53;1.70;;;;;;;9.80;100.00;95952.31;5089524;28;20207;-83
2023/10/27 02:12:26;;;;;;;2.43;1.50;;;;;;;9.80;100.00;95941.75;5084184;28;20281;-83
2023/10/27 02:14:54;;;;;;;4.50;1.83;;;;;;;9.83;100.00;95940.63;5082809;28;20228;-83
2023/10/27 02:17:21;;;;;;;4.67;1.83;;;;;;;9.84;100.00;95934.41;5081388;28;20301;-82
2023/10/27 02:19:49;;;;;;;2.83;1.53;;;;;;;9.86;100.00;95938.50;5080420;28;20212;-82
2023/10/27 02:22:17;;;;;;;3.30;1.90;;;;;;;9.86;100.00;95940.34;5078382;28;20224;-81
2023/10/27 02:24:44;;;;;;;4.00;1.57;;;;;;;9.92;100.00;95942.34;5076784;28;20207;-81
2023/10/27 02:27:10;;;;;;;3.80;1.67;;;;;;;9.90;100.00;95941.69;5076436;28;20305;-82
2023/10/27 02:29:37;;;;;;;2.30;1.50;;;;;;;9.92;100.00;95942.34;5080066;28;20234;-82
2023/10/27 02:32:06;;;;;;;2.10;1.40;;;;;;;9.92;100.00;95929.97;5078922;28;20236;-81
2023/10/27 02:34:33;;;;;;;3.97;1.83;;;;;;;9.88;100.00;95935.72;5081657;28;20223;-84
2023/10/27 02:36:59;;;;;;;3.67;1.80;;;;;;;9.83;100.00;95940.63;5082958;28;20210;-83
2023/10/27 02:39:26;;;;;;;2.73;1.83;;;;;;;9.86;100.00;95932.44;5080941;28;20203;-84
2023/10/27 02:41:52;;;;;;;3.80;1.70;;;;;;;9.88;100.00;95935.72;5080640;28;20239;-85
2023/10/27 02:44:19;;;;;;;4.13;1.77;;;;;;;9.89;100.00;95932.09;5080131;28;20213;-84
2023/10/27 02:46:45;;;;;;;3.33;1.43;;;;;;;9.90;100.00;95934.59;5083765;28;20211;-82
2023/10/27 02:49:13;;;;;;;3.60;2.00;;;;;;;9.89;100.00;95937.38;5088241;28;20242;-82
2023/10/27 02:51:39;;;;;;;5.47;1.47;;;;;;;9.88;100.00;95930.44;5087126;28;20228;-83
2023/10/27 02:54:06;;;;;;;4.60;1.90;;;;;;;9.86;100.00;95942.97;5085686;28;20208;-83
2023/10/27 02:56:32;;;;;;;2.30;1.63;;;;;;;9.83;100.00;95927.44;5081568;28;20195;-83
2023/10/27 02:58:59;;;;;;;3.53;1.43;;;;;;;9.80;100.00;95914.56;5099715;28;20247;-81
2023/10/27 03:01:25;;;;;;;2.63;1.60;;;;;;;9.79;100.00;95919.00;5099298;28;20224;-82
2023/10/27 03:03:52;;;;;;;3.97;1.77;;;;;;;9.79;100.00;95920.84;5093842;28;20625;-85
2023/10/27 03:06:20;;;;;;;2.97;1.70;;;;;;;9.78;100.00;95908.63;5091184;28;20218;-85
2023/10/27 03:08:47;;;;;;;2.27;1.40;;;;;;;9.77;100.00;95913.06;5090518;28;20241;-84
2023/10/27 03:11:13;;;;;;;4.33;1.90;;;;;;;9.79;100.00;95916.38;5090015;28;20232;-85
2023/10/27 03:13:40;;;;;;;2.30;1.70;;;;;;;9.77;100.00;95917.50;5086804;28;20204;-84
2023/10/27 03:16:07;;;;;;;2.40;1.57;;;;;;;9.78;100.00;95916.56;5085990;28;20230;-83
2023/10/27 03:18:33;;;;;;;2.57;1.90;;;;;;;9.77;100.00;95920.97;5086811;28;20665;-84
2023/10/27 03:21:03;;;;;;;3.90;2.07;;;;;;;9.80;100.00;95911.94;5089148;28;20234;-84
2023/10/27 03:23:31;;;;;;;6.13;2.40;;;;;;;9.80;100.00;95911.94;5088090;28;20609;-84
2023/10/27 03:25:58;;;;;;;3.30;2.10;;;;;;;9.78;100.00;95916.56;5088258;28;20206;-85
2023/10/27 03:28:25;;;;;;;3.17;1.63;;;;;;;9.78;100.00;95908.63;5071023;28;20297;-85
2023/10/27 03:30:51;;;;;;;4.13;2.23;;;;;;;9.78;100.00;95911.28;5069505;28;20232;-84
2023/10/27 03:33:18;;;;;;;3.10;1.87;;;;;;;9.77;100.00;95909.59;5088142;28;20232;-84
2023/10/27 03:35:46;;;;;;;4.10;2.30;;;;;;;9.78;100.00;95908.63;5089101;28;20207;-84
2023/10/27 03:38:14;;;;;;;3.70;2.10;;;;;;;9.76;100.00;95905.31;5089295;28;20209;-85
2023/10/27 03:40:43;;;;;;;5.03;2.30;;;;;;;9.77;100.00;95909.59;5087675;28;20273;-85
2023/10/27 03:43:10;;;;;;;3.90;1.97;;;;;;;9.78;100.00;95911.28;5085685;28;20206;-85
2023/10/27 03:45:36;;;;;;;3.67;2.07;;;;;;;9.82;100.00;95920.50;5084868;28;20209;-85
2023/10/27 03:48:04;;;;;;;2.77;2.17;;;;;;;9.78;100.00;95909.44;5085890;28;20235;-85
2023/10/27 03:50:30;;;;;;;4.13;2.40;;;;;;;9.77;100.00;95904.31;5089485;28;20301;-85
2023/10/27 03:52:57;;;;;;;3.27;1.80;;;;;;;9.74;100.00;95894.91;5089888;28;20216;-85
2023/10/27 03:55:23;;;;;;;3.70;2.13;;;;;;;9.75;100.00;95893.09;5089200;28;20215;-84
2023/10/27 03:57:54;;;;;;;4.53;2.20;;;;;;;9.73;100.00;95879.25;5088780;28;20217;-83
2023/10/27 04:00:21;;;;;;;3.90;2.23;;;;;;;9.73;100.00;95879.25;5088964;28;20265;-82
2023/10/27 04:02:47;;;;;;;4.13;2.30;;;;;;;9.68;100.00;95877.06;5088384;28;20229;-83
2023/10/27 04:05:14;;;;;;;5.00;1.97;;;;;;;9.68;100.00;95887.63;5088217;28;20211;-84
2023/10/27 04:07:40;;;;;;;3.73;2.17;;;;;;;9.68;100.00;95868.34;5088764;28;20340;-84
2023/10/27 04:10:07;;;;;;;7.87;2.40;;;;;;;9.70;100.00;95885.66;5087558;28;20207;-83
2023/10/27 04:12:34;;;;;;;3.07;2.43;;;;;;;9.70;100.00;95884.81;5087373;28;20248;-84
2023/10/27 04:15:02;;;;;;;2.77;2.27;;;;;;;9.71;100.00;95887.31;5089700;28;20220;-81
2023/10/27 04:17:28;;;;;;;4.00;2.00;;;;;;;9.70;100.00;95879.56;5093626;28;20263;-84
2023/10/27 04:19:55;;;;;;;3.40;2.23;;;;;;;9.72;100.00;95893.44;5090883;28;20305;-82
2023/10/27 04:22:21;;;;;;;5.13;2.27;;;;;;;9.67;100.00;95880.69;5087699;28;20234;-85
2023/10/27 04:24:48;;;;;;;4.43;2.10;;;;;;;9.66;100.00;95884.31;5087436;28;20288;-84
2023/10/27 04:27:14;;;;;;;3.33;2.17;;;;;;;9.67;100.00;95895.69;5089414;28;20219;-82
2023/10/27 04:29:41;;;;;;;3.63;2.10;;;;;;;9.67;100.00;95893.06;5090903;28;20297;-83
2023/10/27 04:32:09;;;;;;;3.10;2.17;;;;;;;9.69;100.00;95896.38;5093040;28;20234;-84
2023/10/27 04:34:35;;;;;;;4.10;2.27;;;;;;;9.70;100.00;95896.22;5093411;28;20237;-85
2023/10/27 04:37:02;;;;;;;2.97;1.87;;;;;;;9.72;100.00;95901.34;5094444;28;20217;-82
2023/10/27 04:39:28;;;;;;;4.67;1.87;;;;;;;9.74;100.00;95897.53;5092826;28;20299;-84
2023/10/27 04:41:55;;;;;;;2.43;1.77;;;;;;;9.77;100.00;95896.41;5091965;28;20281;-84
2023/10/27 04:44:23;;;;;;;3.53;1.97;;;;;;;9.77;100.00;95901.69;5095611;28;20256;-85
2023/10/27 04:46:50;;;;;;;3.23;1.80;;;;;;;9.77;100.00;95888.50;5097736;28;20213;-84
2023/10/27 04:49:19;;;;;;;6.07;2.40;;;;;;;9.74;100.00;95888.81;5097039;28;20278;-84
2023/10/27 04:51:45;;;;;;;3.80;2.17;;;;;;;9.75;100.00;95887.84;5097414;28;20211;-85
2023/10/27 04:54:12;;;;;;;4.23;2.10;;;;;;;9.72;100.00;95899.53;5095594;28;20217;-84
2023/10/27 04:56:38;;;;;;;2.37;2.03;;;;;;;9.74;100.00;95908.09;5094762;28;20207;-83
2023/10/27 04:59:05;;;;;;;2.60;2.03;;;;;;;9.74;100.00;95902.00;5093667;28;20212;-79
2023/10/27 05:01:31;;;;;;;4.43;2.00;;;;;;;9.74;100.00;95902.00;5091398;28;20289;-80
2023/10/27 05:03:58;;;;;;;4.40;2.60;;;;;;;9.76;100.00;95905.31;5091190;28;20518;-83
2023/10/27 05:06:26;;;;;;;5.63;2.40;;;;;;;9.74;100.00;95896.72;5089372;28;20221;-83
2023/10/27 05:08:52;;;;;;;3.83;1.97;;;;;;;9.73;100.00;95889.81;5088550;28;20237;-83
2023/10/27 05:11:19;;;;;;;3.60;1.80;;;;;;;9.72;100.00;95893.44;5087702;28;20334;-79
2023/10/27 05:13:55;;;;;;;3.53;2.03;;;;;;;9.72;100.00;95898.72;5082773;28;20211;-82
2023/10/27 05:16:22;;;;;;;4.63;1.73;;;;;;;9.71;100.00;95899.66;5082629;28;20215;-81
2023/10/27 05:18:48;;;;;;;2.47;1.87;;;;;;;9.73;100.00;95905.63;5086105;28;20206;-84
2023/10/27 05:21:17;;;;;;;2.10;1.77;;;;;;;9.72;100.00;95911.91;5068383;28;20227;-83
2023/10/27 05:23:44;;;;;;;5.40;2.20;;;;;;;9.74;100.00;95912.56;5085123;28;20204;-83
2023/10/27 05:26:11;;;;;;;6.50;1.83;;;;;;;9.73;100.00;95921.47;5084331;28;20222;-83
2023/10/27 05:28:38;;;;;;;3.20;1.87;;;;;;;9.75;100.00;95911.56;5083486;28;20234;-83
2023/10/27 05:31:07;;;;;;;3.50;2.20;;;;;;;9.75;100.00;95908.94;5087210;28;20259;-83
2023/10/27 05:33:33;;;;;;;4.83;1.80;;;;;;;9.76;100.00;95907.94;5093789;28;20221;-84
2023/10/27 05:36:00;;;;;;;3.53;2.20;;;;;;;9.78;100.00;95900.72;5094280;28;20704;-84
2023/10/27 05:38:26;;;;;;;4.00;1.90;;;;;;;9.76;100.00;95906.16;5094477;28;20200;-83
2023/10/27 05:40:55;;;;;;;2.57;1.80;;;;;;;9.75;100.00;95914.22;5090994;28;20230;-83
2023/10/27 05:43:23;;;;;;;4.17;2.10;;;;;;;9.76;100.00;95915.84;5084540;28;20529;-85
2023/10/27 05:45:49;;;;;;;3.90;2.10;;;;;;;9.79;100.00;95924.28;5086504;28;20222;-84
2023/10/27 05:48:16;;;;;;;3.70;2.17;;;;;;;9.77;100.00;95928.91;5092229;28;20227;-84
2023/10/27 05:50:42;;;;;;;4.20;2.13;;;;;;;9.80;100.00;95935.69;5089753;28;20215;-84
2023/10/27 05:53:09;;;;;;;4.53;2.30;;;;;;;9.82;100.00;95949.53;5088520;28;20220;-79
2023/10/27 05:55:36;;;;;;;5.25;2.28;;;;;;;9.83;100.00;95946.75;5083606;28;20479;-83
2023/10/27 05:58:05;;;;;;;2.57;2.00;;;;;;;9.83;100.00;95948.53;5080435;28;20215;-83
2023/10/27 06:00:32;;;;;;;2.70;2.13;;;;;;;9.83;100.00;95953.81;5077410;28;20302;-81
2023/10/27 06:02:59;;;;;;;6.83;2.63;;;;;;;9.82;100.00;95945.09;5077783;28;20202;-85
2023/10/27 06:05:25;;;;;;;3.27;1.70;;;;;;;9.83;100.00;95946.75;5085242;28;20197;-86
2023/10/27 06:07:52;;;;;;;3.43;2.27;;;;;;;9.86;100.00;95946.44;5099632;28;20194;-86
2023/10/27 06:10:19;;;;;;;17.07;9.40;;;;;;;9.86;100.00;95956.16;5100029;28;20276;-84
2023/10/27 06:12:45;;;;;;;4.50;3.23;;;;;;;9.86;100.00;95958.81;5099857;28;20208;-83
2023/10/27 06:15:13;;;;;;;5.80;2.53;;;;;;;9.88;100.00;95968.22;5099080;28;20211;-84
2023/10/27 06:17:40;;;;;;;3.80;2.40;;;;;;;9.88;100.00;95972.66;5099589;28;20186;-85
2023/10/27 06:20:07;;;;;;;4.63;2.37;;;;;;;9.88;100.00;95970.03;5087098;28;20216;-85
2023/10/27 06:22:34;;;;;;;4.70;2.37;;;;;;;9.89;100.00;95974.31;5083443;28;20234;-84
2023/10/27 06:25:00;;;;;;;3.93;2.57;;;;;;;9.88;100.00;95972.66;5080789;28;20215;-87
2023/10/27 06:27:27;;;;;;;4.37;2.40;;;;;;;9.86;100.00;95985.19;5076632;28;20213;-86
2023/10/27 06:29:53;;;;;;;3.27;2.20;;;;;;;9.84;100.00;95992.44;5075737;28;20231;-84
2023/10/27 06:32:23;;;;;;;5.13;3.00;;;;;;;9.84;100.00;95995.06;5075251;28;20240;-86
2023/10/27 06:34:49;;;;;;;4.53;2.60;;;;;;;9.83;100.00;95996.03;5078085;28;20206;-87
2023/10/27 06:37:16;;;;;;;5.30;2.33;;;;;;;9.81;100.00;96003.28;5080908;28;20215;-87
2023/10/27 06:39:42;;;;;;;3.53;2.20;;;;;;;9.80;100.00;95994.53;5086885;28;20205;-87
2023/10/27 06:42:09;;;;;;;3.83;2.40;;;;;;;9.80;100.00;95996.34;5089497;28;20234;-85
2023/10/27 06:44:35;;;;;;;3.53;2.23;;;;;;;9.80;100.00;95991.06;5098519;28;20205;-86
2023/10/27 06:47:02;;;;;;;4.20;2.40;;;;;;;9.82;100.00;95994.38;5099881;28;20264;-86
2023/10/27 06:49:30;;;;;;;3.00;2.13;;;;;;;9.82;100.00;95995.22;5099007;28;20348;-87
2023/10/27 06:51:56;;;;;;;4.20;2.10;;;;;;;9.88;100.00;96012.22;5087829;28;20228;-86
2023/10/27 06:54:24;;;;;;;3.00;1.90;;;;;;;9.85;100.00;96010.72;5078744;28;20221;-87
2023/10/27 06:56:51;;;;;;;5.13;2.57;;;;;;;9.90;100.00;96010.28;5078611;28;20297;-88
2023/10/27 06:59:18;;;;;;;2.73;1.93;;;;;;;9.98;100.00;96000.59;5080477;28;20218;-85
2023/10/27 07:01:45;;;;;;;4.27;2.10;;;;;;;9.99;100.00;96007.56;5081391;28;20580;-88
2023/10/27 07:04:13;;;;;;;3.17;1.90;;;;;;;10.02;100.00;96009.03;5079059;28;20218;-86
2023/10/27 07:06:41;;;;;;;2.77;2.20;;;;;;;10.09;100.00;96007.50;5077947;28;20255;-85
2023/10/27 07:09:07;;;;;;;2.10;1.90;;;;;;;10.12;100.00;96007.16;5078976;28;20228;-86
2023/10/27 07:11:34;;;;;;;2.20;1.67;;;;;;;10.19;100.00;96016.13;5076077;28;20739;-77
2023/10/27 07:14:00;;;;;;;2.43;1.60;;;;;;;10.22;100.00;96019.28;5076259;28;20216;-87
2023/10/27 07:16:27;;;;;;;1.47;1.20;;;;;;;10.23;100.00;96028.03;5076498;28;20218;-87
2023/10/27 07:18:54;;;;;;;3.07;1.40;;;;;;;10.25;100.00;96029.53;5086846;28;20213;-86
2023/10/27 07:21:20;;;;;;;1.77;1.30;;;;;;;10.26;100.00;96038.28;5082280;28;20674;-86
2023/10/27 07:23:48;;;;;;;1.13;1.03;;;;;;;10.30;100.00;96037.00;5076622;28;20232;-86
2023/10/27 07:26:16;;;;;;;2.20;1.50;;;;;;;10.29;100.00;96041.44;5081154;28;20215;-88
2023/10/27 07:28:44;;;;;;;1.50;1.37;;;;;;;10.31;100.00;96033.34;5077107;28;20227;-87
2023/10/27 07:31:11;;;;;;;3.10;1.63;;;;;;;10.32;100.00;96029.72;5077286;28;20225;-86
2023/10/27 07:33:38;;;;;;;3.43;2.23;;;;;;;10.34;100.00;96025.16;5075661;28;20210;-86
2023/10/27 07:36:06;;;;;;;3.90;2.50;;;;;;;10.35;100.00;96024.97;5077149;28;20211;-85
2023/10/27 07:38:34;;;;;;;3.00;2.03;;;;;;;10.43;100.00;96040.88;5080986;28;20220;-85
2023/10/27 07:41:03;;;;;;;1.97;1.33;;;;;;;10.45;100.00;96051.31;5075289;28;20240;-85
2023/10/27 07:43:30;;;;;;;1.30;1.03;;;;;;;10.45;100.00;96056.56;5077124;28;20215;-83
2023/10/27 07:45:57;;;;;;;3.03;1.20;;;;;;;10.48;100.00;96045.69;5076974;28;20671;-86
2023/10/27 07:48:23;;;;;;;1.57;1.10;;;;;;;10.49;100.00;96057.91;5076621;28;20688;-84
2023/10/27 07:50:50;;;;;;;2.07;0.87;;;;;;;10.50;100.00;96051.63;5075163;28;20239;-84
2023/10/27 07:53:16;;;;;;;1.63;1.00;;;;;;;10.61;100.00;96056.66;5076368;28;20224;-83
2023/10/27 07:55:45;;;;;;;0.80;0.60;;;;;;;10.69;100.00;96060.19;5077889;28;20213;-84
2023/10/27 07:58:12;;;;;;;1.07;0.93;;;;;;;10.81;100.00;96071.28;5079298;28;20232;-84
2023/10/27 08:00:39;;;;;;;0.90;0.90;;;;;;;10.90;100.00;96078.28;5077863;28;20214;-85
2023/10/27 08:03:06;;;;;;;1.03;0.80;;;;;;;10.96;100.00;96078.47;5079108;28;20208;-84
2023/10/27 08:05:32;;;;;;;1.50;1.20;;;;;;;10.97;100.00;96084.59;5079718;28;20212;-86
2023/10/27 08:07:59;;;;;;;1.30;1.03;;;;;;;10.99;100.00;96098.47;5078774;28;20224;-83
2023/10/27 08:10:25;;;;;;;0.80;0.80;;;;;;;11.01;100.00;96102.63;5080604;28;20241;-88
2023/10/27 08:12:52;;;;;;;1.43;1.00;;;;;;;11.04;100.00;96101.47;5081574;28;20238;-84
2023/10/27 08:15:20;;;;;;;1.70;0.97;;;;;;;11.05;100.00;96108.41;5081134;28;20231;-84
2023/10/27 08:17:46;;;;;;;1.10;0.80;;;;;;;11.10;100.00;96117.56;5077840;28;20212;-87
2023/10/27 08:20:13;;;;;;;1.07;1.00;;;;;;;11.12;100.00;96126.13;5078504;28;20217;-83
2023/10/27 08:22:39;;;;;;;0.63;0.60;;;;;;;11.17;100.00;96133.59;5080553;28;20235;-83
2023/10/27 08:25:06;;;;;;;0.60;0.60;;;;;;;11.23;100.00;96138.25;5080453;28;20213;-82
2023/10/27 08:27:33;;;;;;;0.97;0.57;;;;;;;11.25;100.00;96138.94;5076407;28;20207;-83
2023/10/27 08:30:00;;;;;;;0.70;0.70;;;;;;;11.31;100.00;96141.75;5074897;28;20229;-83
2023/10/27 08:32:28;;;;;;;1.10;0.77;;;;;;;11.32;100.00;96142.59;5075912;28;20227;-84
2023/10/27 08:34:54;;;;;;;1.13;0.60;;;;;;;11.36;100.00;96162.44;5078178;28;20277;-85
2023/10/27 08:37:21;;;;;;;0.40;0.37;;;;;;;11.26;100.00;96153.81;5076383;28;20216;-84
2023/10/27 08:39:47;;;;;;;0.50;0.50;;;;;;;11.18;100.00;96165.16;5078604;28;20676;-84
2023/10/27 08:42:15;;;;;;;0.60;0.50;;;;;;;11.16;100.00;96168.94;5075643;28;20239;-83
2023/10/27 08:44:42;;;;;;;1.80;0.70;;;;;;;11.10;100.00;96174.88;5074801;28;20212;-85
2023/10/27 08:47:09;;;;;;;0.87;0.60;;;;;;;11.09;100.00;96170.56;5075750;28;20645;-85
2023/10/27 08:49:37;;;;;;;1.27;0.50;;;;;;;11.06;100.00;96178.81;5076902;28;20235;-84
2023/10/27 08:52:05;;;;;;;0.30;0.30;;;;;;;11.05;100.00;96182.44;5076873;28;20231;-85
2023/10/27 08:54:32;;;;;;;0.40;0.40;;;;;;;11.04;100.00;96181.63;5077040;28;20212;-83
2023/10/27 08:56:58;;;;;;;0.70;0.50;;;;;;;11.06;100.00;96190.22;5077035;28;20267;-85
2023/10/27 08:59:25;;;;;;;0.70;0.70;;;;;;;11.01;100.00;96186.38;5075126;28;20701;-84
2023/10/27 09:01:54;;;;;;;0.60;0.40;;;;;;;11.03;100.00;96189.69;5075661;28;20228;-85
2023/10/27 09:04:23;;;;;;;0.53;0.40;;;;;;;11.04;100.00;96189.53;5074712;28;20313;-82
2023/10/27 09:06:51;;;;;;;0.50;0.50;;;;;;;11.08;100.00;96198.81;5074939;28;20630;-84
2023/10/27 09:09:19;;;;;;;0.47;0.47;;;;;;;11.12;100.00;96194.06;5074719;28;20228;-84
2023/10/27 09:11:48;;;;;;;1.03;0.60;;;;;;;11.16;100.00;96200.69;5075680;28;20648;-84
2023/10/27 09:14:23;;;;;;;0.40;0.30;;;;;;;11.17;100.00;96204.97;5080490;28;20215;-83
2023/10/27 09:16:50;;;;;;;0.37;0.37;;;;;;;11.15;100.00;96206.97;5078773;28;20218;-85
2023/10/27 09:19:26;;;;;;;0.20;0.20;;;;;;;11.24;100.00;96219.22;5078640;28;20722;-82
2023/10/27 09:21:54;;;;;;;0.20;0.20;;;;;;;11.33;100.00;96207.72;5077502;28;20235;-85
2023/10/27 09:24:25;;;;;;;2.50;0.50;;;;;;;11.45;100.00;96214.41;5077556;28;20519;-85
2023/10/27 09:26:53;;;;;;;0.73;0.30;;;;;;;11.53;100.00;96219.72;5077897;28;20316;-80
2023/10/27 09:29:20;;;;;;;0.70;0.30;;;;;;;11.57;100.00;96229.00;5077642;28;20231;-83
2023/10/27 09:31:47;;;;;;;0.40;0.40;;;;;;;11.56;100.00;96230.81;5076973;28;20251;-81
2023/10/27 09:34:18;;;;;;;0.87;0.40;;;;;;;11.55;100.00;96233.63;5076092;28;20672;-83
2023/10/27 09:36:46;;;;;;;0.40;0.40;;;;;;;11.61;100.00;96238.34;5077660;28;20208;-82
2023/10/27 09:39:18;;;;;;;0.57;0.50;;;;;;;11.68;100.00;96239.34;5077891;28;20626;-81
2023/10/27 09:41:46;;;;;;;1.37;0.43;;;;;;;11.67;100.00;96238.50;5076582;28;20234;-81
2023/10/27 09:44:15;;;;;;;1.70;0.43;;;;;;;11.71;100.00;96234.56;5075844;28;20297;-81
2023/10/27 09:46:49;;;;;;;0.83;0.50;;;;;;;11.73;100.00;96242.34;5075960;28;20223;-84
2023/10/27 09:49:25;;;;;;;0.50;0.47;;;;;;;11.74;100.00;96252.75;5076633;28;20260;-84
2023/10/27 09:51:59;;;;;;;0.60;0.40;;;;;;;11.79;100.00;96252.31;5076814;28;20235;-84
2023/10/27 09:54:30;;;;;;;0.77;0.60;;;;;;;11.80;100.00;96253.97;5076369;28;20205;-83
2023/10/27 09:56:59;;;;;;;0.37;0.33;;;;;;;11.75;100.00;96258.91;5078292;28;20225;-81
2023/10/27 09:59:26;;;;;;;0.73;0.40;;;;;;;11.72;100.00;96267.97;5078500;28;20207;-81
2023/10/27 10:01:53;;;;;;;0.47;0.40;;;;;;;11.74;100.00;96270.47;5078547;28;20225;-82
2023/10/27 10:04:53;;;;;;;0.30;0.30;;;;;;;11.68;100.00;96279.84;5078642;28;20688;-81
2023/10/27 10:07:29;;;;;;;0.93;0.50;;;;;;;11.67;100.00;96280.03;5077863;28;20213;-81
2023/10/27 10:09:58;;;;;;;0.30;0.30;;;;;;;11.70;100.00;96280.56;5076919;28;20787;-79
2023/10/27 10:12:25;;;;;;;0.47;0.40;;;;;;;11.77;100.00;96280.72;5076558;28;20241;-80
2023/10/27 10:14:50;;;;;;;1.47;0.50;;;;;;;11.87;100.00;96281.44;5076995;28;20224;-80
2023/10/27 10:17:39;;;;;;;0.60;0.50;;;;;;;12.03;100.00;96281.50;5077881;28;20616;-83
2023/10/27 10:20:06;;;;;;;0.80;0.50;;;;;;;12.19;100.00;96281.56;5061012;28;20202;-83
2023/10/27 10:22:54;;;;;;;0.57;0.50;;;;;;;12.37;100.00;96280.50;5073241;28;20426;-83
2023/10/27 10:25:33;;;;;;;1.30;0.40;;;;;;;12.42;100.00;96285.28;5078058;28;20217;-81
2023/10/27 10:28:22;;;;;;;0.60;0.50;;;;;;;12.42;100.00;96287.94;5080591;28;20190;-84
2023/10/27 10:31:09;;;;;;;0.63;0.40;;;;;;;12.35;100.00;96289.59;5087186;28;20217;-82
2023/10/27 10:33:37;;;;;;;0.50;0.50;;;;;;;12.24;100.00;96289.88;5098875;28;20217;-81
2023/10/27 10:36:25;;;;;;;0.93;0.60;;;;;;;12.26;100.00;96290.53;5099909;28;20249;-80
2023/10/27 10:38:59;;;;;;;1.53;0.67;;;;;;;12.22;100.00;96291.88;5081192;28;20225;-84
2023/10/27 10:42:04;;;;;;;1.60;0.70;;;;;;;12.22;100.00;96289.22;5082437;28;20223;-83
2023/10/27 10:44:30;;;;;;;3.23;2.90;;;;;;;12.41;100.00;96288.94;5079344;28;20217;-82
2023/10/27 10:47:00;;;;;;;4.27;2.03;;;;;;;12.61;100.00;96277.06;5081511;28;20207;-84
2023/10/27 10:49:28;;;;;;;8.97;4.13;;;;;;;12.73;100.00;96275.75;5077628;28;20593;-84
2023/10/27 10:51:55;;;;;;;12.50;6.97;;;;;;;12.78;100.00;96273.44;5077849;28;20733;-84
2023/10/27 10:54:26;;;;;;;9.73;6.20;;;;;;;12.82;100.00;96272.09;5079811;28;20213;-83
2023/10/27 10:57:00;;;;;;;6.70;3.90;;;;;;;12.93;100.00;96261.16;5080872;28;20192;-83
2023/10/27 10:59:28;;;;;;;3.57;2.33;;;;;;;13.00;100.00;96262.19;5083776;28;20214;-84
2023/10/27 11:01:56;;;;;;;2.17;1.23;;;;;;;13.12;100.00;96268.81;5080406;28;20321;-82
2023/10/27 11:04:28;;;;;;;2.87;1.43;;;;;;;13.14;100.00;96265.00;5078663;28;20242;-81
2023/10/27 11:06:59;;;;;;;0.80;0.80;;;;;;;13.07;100.00;96268.50;5081053;28;20691;-82
2023/10/27 11:09:25;;;;;;;2.43;0.80;;;;;;;12.95;100.00;96265.34;5080576;28;20267;-83
2023/10/27 11:11:52;;;;;;;2.43;0.80;;;;;;;12.79;100.00;96262.69;5079605;28;20236;-80
2023/10/27 11:14:18;;;;;;;2.43;0.63;;;;;;;12.75;100.00;96252.53;5081161;28;20572;-82
2023/10/27 11:16:55;;;;;;;1.33;0.63;;;;;;;12.78;100.00;96257.53;5081566;28;20218;-81
2023/10/27 11:19:21;;;;;;;1.83;0.70;;;;;;;12.90;100.00;96250.91;5082056;28;20298;-82
2023/10/27 11:21:52;;;;;;;1.40;0.80;;;;;;;13.02;100.00;96254.91;5078729;28;20237;-83
2023/10/27 11:24:18;;;;;;;1.20;0.80;;;;;;;13.13;100.00;96251.91;5077141;28;20268;-80
2023/10/27 11:26:45;;;;;;;3.13;0.93;;;;;;;13.28;100.00;96258.22;5074504;28;20215;-80
2023/10/27 11:29:11;;;;;;;2.40;0.70;;;;;;;13.29;100.00;96244.78;5075639;28;20217;-82
2023/10/27 11:31:41;;;;;;;1.47;0.53;;;;;;;13.24;100.00;96254.22;5074857;28;20730;-80